Terminal Aerodrome Forecast
Issued by NWS Wilmington, NC

Home | Current Version | Previous Version | Text Only | Print | Product List | Glossary On
Versions: 1 2 3 4 5 6 7 8 9 10 11 12 13 14
000
FTUS42 KILM 041131
TAFFLO
TAF
KFLO 041131Z 0412/0512 03006KT P6SM SCT030 SCT100
      TEMPO 0412/0413 4SM BR
     FM041900 06006KT P6SM BKN060
     FM050100 06003KT P6SM VCSH BKN070
     FM050600 03004KT 5SM BR SCT015 SCT250
      TEMPO 0509/0512 BKN005=

USA.gov is the U.S. government's official web portal to all federal, state and local government web resources and services.